sensor_id;sensor_type;location;lat;lon;timestamp;P1;durP1;ratioP1;P2;durP2;ratioP2
65477;SDS011;53678;39.642;22.430;2023-04-01T00:02:18;5.97;;;1.83;;
65477;SDS011;53678;39.642;22.430;2023-04-01T00:04:44;11.32;;;2.25;;
65477;SDS011;53678;39.642;22.430;2023-04-01T00:07:10;17.65;;;3.22;;
65477;SDS011;53678;39.642;22.430;2023-04-01T00:09:36;8.35;;;1.85;;
65477;SDS011;53678;39.642;22.430;2023-04-01T00:12:02;9.55;;;2.40;;
65477;SDS011;53678;39.642;22.430;2023-04-01T00:14:28;6.07;;;2.00;;
65477;SDS011;53678;39.642;22.430;2023-04-01T00:16:55;5.80;;;1.95;;
65477;SDS011;53678;39.642;22.430;2023-04-01T00:19:20;6.82;;;2.08;;
65477;SDS011;53678;39.642;22.430;2023-04-01T00:21:46;9.27;;;2.35;;
65477;SDS011;53678;39.642;22.430;2023-04-01T00:24:13;10.52;;;2.20;;
65477;SDS011;53678;39.642;22.430;2023-04-01T00:26:39;7.88;;;1.92;;
65477;SDS011;53678;39.642;22.430;2023-04-01T00:29:07;9.82;;;2.38;;
65477;SDS011;53678;39.642;22.430;2023-04-01T00:31:33;9.65;;;2.25;;
65477;SDS011;53678;39.642;22.430;2023-04-01T00:33:59;8.20;;;1.77;;
65477;SDS011;53678;39.642;22.430;2023-04-01T00:36:24;7.57;;;1.88;;
65477;SDS011;53678;39.642;22.430;2023-04-01T00:38:50;7.65;;;2.17;;
65477;SDS011;53678;39.642;22.430;2023-04-01T00:41:17;9.43;;;2.22;;
65477;SDS011;53678;39.642;22.430;2023-04-01T00:43:45;11.23;;;2.35;;
65477;SDS011;53678;39.642;22.430;2023-04-01T00:46:13;9.02;;;2.00;;
65477;SDS011;53678;39.642;22.430;2023-04-01T00:48:41;11.07;;;2.17;;
65477;SDS011;53678;39.642;22.430;2023-04-01T00:51:11;11.45;;;2.20;;
65477;SDS011;53678;39.642;22.430;2023-04-01T00:53:41;8.07;;;1.90;;
65477;SDS011;53678;39.642;22.430;2023-04-01T00:56:13;12.40;;;2.58;;
65477;SDS011;53678;39.642;22.430;2023-04-01T00:58:47;6.55;;;2.17;;
65477;SDS011;53678;39.642;22.430;2023-04-01T01:01:16;14.90;;;2.17;;
65477;SDS011;53678;39.642;22.430;2023-04-01T01:03:42;9.60;;;2.30;;
65477;SDS011;53678;39.642;22.430;2023-04-01T01:06:17;9.80;;;2.20;;
65477;SDS011;53678;39.642;22.430;2023-04-01T01:26:02;11.00;;;2.40;;
65477;SDS011;53678;39.642;22.430;2023-04-01T01:36:59;6.13;;;1.95;;
65477;SDS011;53678;39.642;22.430;2023-04-01T01:39:30;7.68;;;2.20;;
65477;SDS011;53678;39.642;22.430;2023-04-01T01:42:01;10.13;;;2.28;;
65477;SDS011;53678;39.642;22.430;2023-04-01T01:44:31;10.95;;;2.15;;
65477;SDS011;53678;39.642;22.430;2023-04-01T01:46:58;10.38;;;2.00;;
65477;SDS011;53678;39.642;22.430;2023-04-01T01:49:25;9.07;;;2.58;;
65477;SDS011;53678;39.642;22.430;2023-04-01T01:51:52;9.32;;;2.78;;
65477;SDS011;53678;39.642;22.430;2023-04-01T01:54:18;8.20;;;2.47;;
65477;SDS011;53678;39.642;22.430;2023-04-01T01:56:45;7.90;;;2.67;;
65477;SDS011;53678;39.642;22.430;2023-04-01T01:59:14;7.30;;;2.67;;
65477;SDS011;53678;39.642;22.430;2023-04-01T02:01:45;7.93;;;2.45;;
65477;SDS011;53678;39.642;22.430;2023-04-01T02:04:14;10.70;;;2.97;;
65477;SDS011;53678;39.642;22.430;2023-04-01T02:06:44;5.78;;;1.92;;
65477;SDS011;53678;39.642;22.430;2023-04-01T02:09:15;7.13;;;2.50;;
65477;SDS011;53678;39.642;22.430;2023-04-01T02:11:43;9.23;;;2.58;;
65477;SDS011;53678;39.642;22.430;2023-04-01T02:14:15;6.90;;;2.37;;
65477;SDS011;53678;39.642;22.430;2023-04-01T02:16:45;12.32;;;2.40;;
65477;SDS011;53678;39.642;22.430;2023-04-01T02:19:35;12.52;;;2.80;;
65477;SDS011;53678;39.642;22.430;2023-04-01T02:22:05;8.80;;;2.47;;
65477;SDS011;53678;39.642;22.430;2023-04-01T02:24:35;5.40;;;2.05;;
65477;SDS011;53678;39.642;22.430;2023-04-01T02:27:04;9.10;;;2.40;;
65477;SDS011;53678;39.642;22.430;2023-04-01T02:29:31;8.80;;;2.85;;
65477;SDS011;53678;39.642;22.430;2023-04-01T02:31:57;6.10;;;2.10;;
65477;SDS011;53678;39.642;22.430;2023-04-01T02:34:24;10.10;;;2.30;;
65477;SDS011;53678;39.642;22.430;2023-04-01T02:36:51;7.20;;;1.80;;
65477;SDS011;53678;39.642;22.430;2023-04-01T02:39:18;4.93;;;1.90;;
65477;SDS011;53678;39.642;22.430;2023-04-01T02:41:44;10.93;;;2.50;;
65477;SDS011;53678;39.642;22.430;2023-04-01T02:44:11;12.20;;;2.97;;
65477;SDS011;53678;39.642;22.430;2023-04-01T02:46:38;7.93;;;2.30;;
65477;SDS011;53678;39.642;22.430;2023-04-01T02:49:04;7.75;;;2.33;;
65477;SDS011;53678;39.642;22.430;2023-04-01T02:51:30;7.55;;;2.22;;
65477;SDS011;53678;39.642;22.430;2023-04-01T02:53:56;8.70;;;2.10;;
65477;SDS011;53678;39.642;22.430;2023-04-01T02:56:21;9.70;;;2.30;;
65477;SDS011;53678;39.642;22.430;2023-04-01T02:58:47;10.00;;;2.35;;
65477;SDS011;53678;39.642;22.430;2023-04-01T03:01:13;9.95;;;2.50;;
65477;SDS011;53678;39.642;22.430;2023-04-01T03:03:39;8.70;;;2.15;;
65477;SDS011;53678;39.642;22.430;2023-04-01T03:06:05;8.75;;;2.03;;
65477;SDS011;53678;39.642;22.430;2023-04-01T03:08:33;4.85;;;1.88;;
65477;SDS011;53678;39.642;22.430;2023-04-01T03:10:59;9.07;;;2.30;;
65477;SDS011;53678;39.642;22.430;2023-04-01T03:13:25;13.90;;;3.30;;
65477;SDS011;53678;39.642;22.430;2023-04-01T03:15:50;8.27;;;2.28;;
65477;SDS011;53678;39.642;22.430;2023-04-01T03:18:16;9.95;;;2.08;;
65477;SDS011;53678;39.642;22.430;2023-04-01T03:20:42;17.08;;;2.65;;
65477;SDS011;53678;39.642;22.430;2023-04-01T03:23:09;13.00;;;2.42;;
65477;SDS011;53678;39.642;22.430;2023-04-01T03:25:35;8.52;;;2.45;;
65477;SDS011;53678;39.642;22.430;2023-04-01T03:28:02;13.95;;;5.68;;
65477;SDS011;53678;39.642;22.430;2023-04-01T03:30:28;14.32;;;4.65;;
65477;SDS011;53678;39.642;22.430;2023-04-01T03:32:56;12.40;;;2.83;;
65477;SDS011;53678;39.642;22.430;2023-04-01T03:35:23;13.07;;;2.45;;
65477;SDS011;53678;39.642;22.430;2023-04-01T03:37:50;11.57;;;2.58;;
65477;SDS011;53678;39.642;22.430;2023-04-01T03:40:16;9.25;;;2.20;;
65477;SDS011;53678;39.642;22.430;2023-04-01T03:42:42;9.77;;;2.92;;
65477;SDS011;53678;39.642;22.430;2023-04-01T03:45:08;17.58;;;4.07;;
65477;SDS011;53678;39.642;22.430;2023-04-01T03:47:34;10.23;;;2.55;;
65477;SDS011;53678;39.642;22.430;2023-04-01T03:50:01;6.78;;;2.63;;
65477;SDS011;53678;39.642;22.430;2023-04-01T03:52:26;12.90;;;3.40;;
65477;SDS011;53678;39.642;22.430;2023-04-01T03:54:52;12.57;;;3.10;;
65477;SDS011;53678;39.642;22.430;2023-04-01T03:57:18;11.35;;;2.38;;
65477;SDS011;53678;39.642;22.430;2023-04-01T03:59:44;7.50;;;3.33;;
65477;SDS011;53678;39.642;22.430;2023-04-01T04:02:10;9.98;;;2.92;;
65477;SDS011;53678;39.642;22.430;2023-04-01T04:04:36;13.68;;;2.97;;
65477;SDS011;53678;39.642;22.430;2023-04-01T04:07:02;7.85;;;2.60;;
65477;SDS011;53678;39.642;22.430;2023-04-01T04:09:37;14.23;;;2.88;;
65477;SDS011;53678;39.642;22.430;2023-04-01T04:12:03;11.10;;;2.72;;
65477;SDS011;53678;39.642;22.430;2023-04-01T04:14:31;10.20;;;2.35;;
65477;SDS011;53678;39.642;22.430;2023-04-01T04:16:57;15.00;;;3.20;;
65477;SDS011;53678;39.642;22.430;2023-04-01T04:19:23;13.30;;;2.92;;
65477;SDS011;53678;39.642;22.430;2023-04-01T04:21:48;12.68;;;3.08;;
65477;SDS011;53678;39.642;22.430;2023-04-01T04:24:15;15.05;;;3.58;;
65477;SDS011;53678;39.642;22.430;2023-04-01T04:26:59;13.35;;;3.10;;
65477;SDS011;53678;39.642;22.430;2023-04-01T04:29:25;11.30;;;2.60;;
65477;SDS011;53678;39.642;22.430;2023-04-01T04:31:51;14.25;;;3.47;;
65477;SDS011;53678;39.642;22.430;2023-04-01T04:34:17;10.43;;;2.88;;
65477;SDS011;53678;39.642;22.430;2023-04-01T04:36:43;15.38;;;3.47;;
65477;SDS011;53678;39.642;22.430;2023-04-01T04:39:09;8.10;;;2.42;;
65477;SDS011;53678;39.642;22.430;2023-04-01T04:41:37;12.82;;;3.47;;
65477;SDS011;53678;39.642;22.430;2023-04-01T04:44:03;17.30;;;4.63;;
65477;SDS011;53678;39.642;22.430;2023-04-01T04:46:31;13.48;;;3.17;;
65477;SDS011;53678;39.642;22.430;2023-04-01T04:49:06;8.35;;;2.40;;
65477;SDS011;53678;39.642;22.430;2023-04-01T04:51:32;11.75;;;2.72;;
65477;SDS011;53678;39.642;22.430;2023-04-01T04:54:04;14.57;;;3.13;;
65477;SDS011;53678;39.642;22.430;2023-04-01T04:56:50;9.30;;;2.90;;
65477;SDS011;53678;39.642;22.430;2023-04-01T04:59:17;14.00;;;3.53;;
65477;SDS011;53678;39.642;22.430;2023-04-01T05:01:54;12.73;;;3.20;;
65477;SDS011;53678;39.642;22.430;2023-04-01T05:04:20;11.82;;;3.83;;
65477;SDS011;53678;39.642;22.430;2023-04-01T05:06:46;17.83;;;3.67;;
65477;SDS011;53678;39.642;22.430;2023-04-01T05:09:12;13.80;;;3.80;;
65477;SDS011;53678;39.642;22.430;2023-04-01T05:11:38;26.88;;;5.57;;
65477;SDS011;53678;39.642;22.430;2023-04-01T05:14:05;16.75;;;3.72;;
65477;SDS011;53678;39.642;22.430;2023-04-01T05:16:32;12.80;;;3.08;;
65477;SDS011;53678;39.642;22.430;2023-04-01T05:18:58;13.93;;;4.05;;
65477;SDS011;53678;39.642;22.430;2023-04-01T05:21:24;16.45;;;4.75;;
65477;SDS011;53678;39.642;22.430;2023-04-01T05:23:51;19.02;;;3.72;;
65477;SDS011;53678;39.642;22.430;2023-04-01T05:26:17;14.27;;;4.20;;
65477;SDS011;53678;39.642;22.430;2023-04-01T05:28:43;12.63;;;3.50;;
65477;SDS011;53678;39.642;22.430;2023-04-01T05:31:09;34.67;;;7.13;;
65477;SDS011;53678;39.642;22.430;2023-04-01T05:33:40;23.55;;;4.70;;
65477;SDS011;53678;39.642;22.430;2023-04-01T05:36:10;21.65;;;5.25;;
65477;SDS011;53678;39.642;22.430;2023-04-01T05:38:38;21.90;;;5.40;;
65477;SDS011;53678;39.642;22.430;2023-04-01T05:41:07;26.75;;;4.90;;
65477;SDS011;53678;39.642;22.430;2023-04-01T05:43:36;22.33;;;5.38;;
65477;SDS011;53678;39.642;22.430;2023-04-01T05:46:23;24.10;;;5.43;;
65477;SDS011;53678;39.642;22.430;2023-04-01T05:48:55;17.52;;;4.55;;
65477;SDS011;53678;39.642;22.430;2023-04-01T05:51:23;19.33;;;4.90;;
65477;SDS011;53678;39.642;22.430;2023-04-01T05:53:49;16.92;;;4.95;;
65477;SDS011;53678;39.642;22.430;2023-04-01T05:56:17;23.35;;;5.30;;
65477;SDS011;53678;39.642;22.430;2023-04-01T05:58:50;21.60;;;5.03;;
65477;SDS011;53678;39.642;22.430;2023-04-01T06:01:17;15.13;;;3.83;;
65477;SDS011;53678;39.642;22.430;2023-04-01T06:03:44;18.25;;;3.58;;
65477;SDS011;53678;39.642;22.430;2023-04-01T06:06:12;19.13;;;3.30;;
65477;SDS011;53678;39.642;22.430;2023-04-01T06:08:41;14.52;;;3.83;;
65477;SDS011;53678;39.642;22.430;2023-04-01T06:39:21;13.73;;;3.50;;
65477;SDS011;53678;39.642;22.430;2023-04-01T06:42:13;17.05;;;4.25;;
65477;SDS011;53678;39.642;22.430;2023-04-01T06:44:54;10.60;;;3.10;;
65477;SDS011;53678;39.642;22.430;2023-04-01T06:54:19;17.10;;;3.07;;
65477;SDS011;53678;39.642;22.430;2023-04-01T06:57:23;9.93;;;2.78;;
65477;SDS011;53678;39.642;22.430;2023-04-01T06:59:59;9.95;;;2.65;;
65477;SDS011;53678;39.642;22.430;2023-04-01T07:02:39;9.05;;;2.60;;
65477;SDS011;53678;39.642;22.430;2023-04-01T07:05:11;9.98;;;2.53;;
65477;SDS011;53678;39.642;22.430;2023-04-01T07:07:40;8.85;;;2.42;;
65477;SDS011;53678;39.642;22.430;2023-04-01T07:10:13;10.90;;;2.60;;
65477;SDS011;53678;39.642;22.430;2023-04-01T07:13:03;10.48;;;2.80;;
65477;SDS011;53678;39.642;22.430;2023-04-01T07:15:41;4.93;;;2.53;;
65477;SDS011;53678;39.642;22.430;2023-04-01T07:18:21;11.60;;;3.00;;
65477;SDS011;53678;39.642;22.430;2023-04-01T07:21:28;8.55;;;2.22;;
65477;SDS011;53678;39.642;22.430;2023-04-01T07:24:21;14.10;;;3.13;;
65477;SDS011;53678;39.642;22.430;2023-04-01T07:26:55;9.93;;;2.17;;
65477;SDS011;53678;39.642;22.430;2023-04-01T07:29:25;11.15;;;2.50;;
65477;SDS011;53678;39.642;22.430;2023-04-01T07:37:18;8.77;;;2.05;;
65477;SDS011;53678;39.642;22.430;2023-04-01T07:42:42;10.30;;;2.92;;
65477;SDS011;53678;39.642;22.430;2023-04-01T07:56:09;10.23;;;2.55;;
65477;SDS011;53678;39.642;22.430;2023-04-01T07:59:32;12.15;;;2.25;;
65477;SDS011;53678;39.642;22.430;2023-04-01T08:13:26;11.60;;;2.60;;
65477;SDS011;53678;39.642;22.430;2023-04-01T08:16:42;10.38;;;2.83;;
65477;SDS011;53678;39.642;22.430;2023-04-01T08:19:29;6.35;;;2.10;;
65477;SDS011;53678;39.642;22.430;2023-04-01T08:22:10;8.55;;;2.63;;
65477;SDS011;53678;39.642;22.430;2023-04-01T08:24:44;9.50;;;2.47;;
65477;SDS011;53678;39.642;22.430;2023-04-01T08:27:14;13.07;;;2.53;;
65477;SDS011;53678;39.642;22.430;2023-04-01T08:30:03;12.32;;;2.28;;
65477;SDS011;53678;39.642;22.430;2023-04-01T08:32:36;10.45;;;2.10;;
65477;SDS011;53678;39.642;22.430;2023-04-01T08:35:14;9.15;;;2.83;;
65477;SDS011;53678;39.642;22.430;2023-04-01T08:37:51;8.25;;;2.38;;
65477;SDS011;53678;39.642;22.430;2023-04-01T08:46:26;11.35;;;2.00;;
65477;SDS011;53678;39.642;22.430;2023-04-01T09:35:19;9.35;;;2.75;;
65477;SDS011;53678;39.642;22.430;2023-04-01T09:37:34;11.15;;;2.80;;
65477;SDS011;53678;39.642;22.430;2023-04-01T09:40:14;10.35;;;2.80;;
65477;SDS011;53678;39.642;22.430;2023-04-01T09:46:11;7.43;;;2.75;;
65477;SDS011;53678;39.642;22.430;2023-04-01T10:05:25;10.77;;;2.42;;
65477;SDS011;53678;39.642;22.430;2023-04-01T10:16:37;8.63;;;2.90;;
65477;SDS011;53678;39.642;22.430;2023-04-01T10:19:13;12.85;;;2.40;;
65477;SDS011;53678;39.642;22.430;2023-04-01T10:28:05;11.43;;;2.60;;
65477;SDS011;53678;39.642;22.430;2023-04-01T10:42:43;9.52;;;2.72;;
65477;SDS011;53678;39.642;22.430;2023-04-01T10:51:20;13.73;;;2.90;;
65477;SDS011;53678;39.642;22.430;2023-04-01T11:13:52;12.70;;;2.90;;
65477;SDS011;53678;39.642;22.430;2023-04-01T11:33:46;10.35;;;2.70;;
65477;SDS011;53678;39.642;22.430;2023-04-01T11:42:11;13.43;;;2.53;;
65477;SDS011;53678;39.642;22.430;2023-04-01T11:53:31;12.90;;;2.85;;
65477;SDS011;53678;39.642;22.430;2023-04-01T12:49:06;9.20;;;2.95;;
65477;SDS011;53678;39.642;22.430;2023-04-01T12:51:54;17.35;;;2.53;;
65477;SDS011;53678;39.642;22.430;2023-04-01T13:00:12;8.75;;;2.40;;
65477;SDS011;53678;39.642;22.430;2023-04-01T13:07:53;6.90;;;2.53;;
65477;SDS011;53678;39.642;22.430;2023-04-01T13:15:58;8.90;;;2.20;;
65477;SDS011;53678;39.642;22.430;2023-04-01T13:29:49;11.10;;;2.22;;
65477;SDS011;53678;39.642;22.430;2023-04-01T13:35:43;5.40;;;1.70;;
65477;SDS011;53678;39.642;22.430;2023-04-01T13:38:29;4.93;;;1.58;;
65477;SDS011;53678;39.642;22.430;2023-04-01T13:44:09;8.30;;;1.98;;
65477;SDS011;53678;39.642;22.430;2023-04-01T13:46:46;7.95;;;1.95;;
65477;SDS011;53678;39.642;22.430;2023-04-01T14:00:10;11.55;;;2.40;;
65477;SDS011;53678;39.642;22.430;2023-04-01T14:02:51;8.88;;;2.33;;
65477;SDS011;53678;39.642;22.430;2023-04-01T14:08:14;9.13;;;2.50;;
65477;SDS011;53678;39.642;22.430;2023-04-01T14:10:54;8.55;;;2.40;;
65477;SDS011;53678;39.642;22.430;2023-04-01T14:16:41;9.85;;;2.05;;
65477;SDS011;53678;39.642;22.430;2023-04-01T14:22:17;5.25;;;2.38;;
65477;SDS011;53678;39.642;22.430;2023-04-01T14:27:40;9.75;;;3.20;;
65477;SDS011;53678;39.642;22.430;2023-04-01T14:50:17;8.40;;;2.75;;
65477;SDS011;53678;39.642;22.430;2023-04-01T14:52:49;10.13;;;2.67;;
65477;SDS011;53678;39.642;22.430;2023-04-01T14:58:21;7.57;;;2.45;;
65477;SDS011;53678;39.642;22.430;2023-04-01T15:03:30;13.57;;;2.92;;
65477;SDS011;53678;39.642;22.430;2023-04-01T15:14:23;10.40;;;2.40;;
65477;SDS011;53678;39.642;22.430;2023-04-01T15:20:18;6.88;;;2.40;;
65477;SDS011;53678;39.642;22.430;2023-04-01T15:25:54;10.93;;;2.63;;
65477;SDS011;53678;39.642;22.430;2023-04-01T15:33:42;7.68;;;2.42;;
65477;SDS011;53678;39.642;22.430;2023-04-01T15:36:28;16.73;;;3.33;;
65477;SDS011;53678;39.642;22.430;2023-04-01T15:44:26;7.45;;;2.70;;
65477;SDS011;53678;39.642;22.430;2023-04-01T15:47:19;6.82;;;2.70;;
65477;SDS011;53678;39.642;22.430;2023-04-01T15:52:41;9.25;;;2.65;;
65477;SDS011;53678;39.642;22.430;2023-04-01T15:55:18;12.38;;;3.10;;
65477;SDS011;53678;39.642;22.430;2023-04-01T15:58:02;8.00;;;2.65;;
65477;SDS011;53678;39.642;22.430;2023-04-01T16:00:43;6.57;;;2.65;;
65477;SDS011;53678;39.642;22.430;2023-04-01T16:05:58;10.45;;;2.58;;
65477;SDS011;53678;39.642;22.430;2023-04-01T16:14:33;11.10;;;2.50;;
65477;SDS011;53678;39.642;22.430;2023-04-01T16:22:34;9.48;;;3.15;;
65477;SDS011;53678;39.642;22.430;2023-04-01T16:25:17;9.98;;;2.80;;
65477;SDS011;53678;39.642;22.430;2023-04-01T16:28:09;11.10;;;3.53;;
65477;SDS011;53678;39.642;22.430;2023-04-01T16:30:58;11.93;;;4.13;;
65477;SDS011;53678;39.642;22.430;2023-04-01T16:36:22;18.13;;;4.03;;
65477;SDS011;53678;39.642;22.430;2023-04-01T16:42:09;29.13;;;4.68;;
65477;SDS011;53678;39.642;22.430;2023-04-01T16:47:21;11.25;;;3.65;;
65477;SDS011;53678;39.642;22.430;2023-04-01T16:49:56;14.75;;;3.15;;
65477;SDS011;53678;39.642;22.430;2023-04-01T16:54:57;9.85;;;3.03;;
65477;SDS011;53678;39.642;22.430;2023-04-01T16:57:28;16.23;;;5.25;;
65477;SDS011;53678;39.642;22.430;2023-04-01T17:02:47;12.30;;;4.13;;
65477;SDS011;53678;39.642;22.430;2023-04-01T17:05:17;15.73;;;4.18;;
65477;SDS011;53678;39.642;22.430;2023-04-01T17:18:19;8.38;;;2.95;;
65477;SDS011;53678;39.642;22.430;2023-04-01T17:21:02;11.75;;;3.53;;
65477;SDS011;53678;39.642;22.430;2023-04-01T17:23:38;14.63;;;4.10;;
65477;SDS011;53678;39.642;22.430;2023-04-01T17:53:45;9.13;;;4.22;;
65477;SDS011;53678;39.642;22.430;2023-04-01T17:56:29;8.38;;;3.90;;
65477;SDS011;53678;39.642;22.430;2023-04-01T17:59:00;7.72;;;3.00;;
65477;SDS011;53678;39.642;22.430;2023-04-01T18:10:34;12.27;;;2.85;;
65477;SDS011;53678;39.642;22.430;2023-04-01T18:15:52;9.48;;;4.55;;
65477;SDS011;53678;39.642;22.430;2023-04-01T18:27:36;10.35;;;3.35;;
65477;SDS011;53678;39.642;22.430;2023-04-01T18:38:16;7.40;;;3.17;;
65477;SDS011;53678;39.642;22.430;2023-04-01T18:40:53;6.05;;;2.70;;
65477;SDS011;53678;39.642;22.430;2023-04-01T18:49:52;8.15;;;2.30;;
65477;SDS011;53678;39.642;22.430;2023-04-01T18:58:17;8.70;;;2.63;;
65477;SDS011;53678;39.642;22.430;2023-04-01T19:00:48;6.05;;;2.30;;
65477;SDS011;53678;39.642;22.430;2023-04-01T19:03:43;5.25;;;2.00;;
65477;SDS011;53678;39.642;22.430;2023-04-01T19:06:19;10.90;;;2.85;;
65477;SDS011;53678;39.642;22.430;2023-04-01T19:08:51;5.38;;;2.00;;
65477;SDS011;53678;39.642;22.430;2023-04-01T20:03:01;8.32;;;3.08;;
65477;SDS011;53678;39.642;22.430;2023-04-01T20:05:47;7.03;;;3.25;;
65477;SDS011;53678;39.642;22.430;2023-04-01T20:11:42;12.87;;;3.80;;
65477;SDS011;53678;39.642;22.430;2023-04-01T20:14:50;9.52;;;4.50;;
65477;SDS011;53678;39.642;22.430;2023-04-01T20:19:57;10.45;;;4.30;;
65477;SDS011;53678;39.642;22.430;2023-04-01T20:33:52;6.28;;;2.92;;
65477;SDS011;53678;39.642;22.430;2023-04-01T20:47:59;10.27;;;2.78;;
65477;SDS011;53678;39.642;22.430;2023-04-01T21:07:24;6.70;;;2.75;;
65477;SDS011;53678;39.642;22.430;2023-04-01T21:10:26;7.57;;;2.85;;
65477;SDS011;53678;39.642;22.430;2023-04-01T21:35:08;6.53;;;3.05;;
65477;SDS011;53678;39.642;22.430;2023-04-01T21:40:47;7.18;;;2.40;;
65477;SDS011;53678;39.642;22.430;2023-04-01T21:43:34;7.05;;;2.75;;
65477;SDS011;53678;39.642;22.430;2023-04-01T21:51:56;9.10;;;2.63;;
65477;SDS011;53678;39.642;22.430;2023-04-01T22:00:32;6.78;;;2.40;;
65477;SDS011;53678;39.642;22.430;2023-04-01T22:12:12;6.50;;;2.17;;
65477;SDS011;53678;39.642;22.430;2023-04-01T22:14:46;11.27;;;2.33;;
65477;SDS011;53678;39.642;22.430;2023-04-01T22:25:40;7.97;;;3.10;;
65477;SDS011;53678;39.642;22.430;2023-04-01T22:28:16;6.95;;;2.72;;
65477;SDS011;53678;39.642;22.430;2023-04-01T22:30:58;8.55;;;2.40;;
65477;SDS011;53678;39.642;22.430;2023-04-01T22:43:46;6.78;;;2.65;;
65477;SDS011;53678;39.642;22.430;2023-04-01T22:49:32;6.65;;;2.70;;
65477;SDS011;53678;39.642;22.430;2023-04-01T22:52:26;7.28;;;2.67;;
65477;SDS011;53678;39.642;22.430;2023-04-01T22:55:08;10.32;;;3.05;;
65477;SDS011;53678;39.642;22.430;2023-04-01T22:57:54;6.05;;;2.70;;
65477;SDS011;53678;39.642;22.430;2023-04-01T23:00:26;6.90;;;3.20;;
65477;SDS011;53678;39.642;22.430;2023-04-01T23:03:11;9.07;;;2.70;;
65477;SDS011;53678;39.642;22.430;2023-04-01T23:05:47;10.93;;;3.22;;
65477;SDS011;53678;39.642;22.430;2023-04-01T23:11:25;9.93;;;3.00;;
65477;SDS011;53678;39.642;22.430;2023-04-01T23:16:40;11.13;;;2.55;;
65477;SDS011;53678;39.642;22.430;2023-04-01T23:19:19;6.57;;;2.45;;
65477;SDS011;53678;39.642;22.430;2023-04-01T23:22:02;6.18;;;2.45;;
65477;SDS011;53678;39.642;22.430;2023-04-01T23:24:38;7.68;;;2.50;;
65477;SDS011;53678;39.642;22.430;2023-04-01T23:30:46;7.68;;;2.42;;
65477;SDS011;53678;39.642;22.430;2023-04-01T23:33:26;7.40;;;2.50;;
65477;SDS011;53678;39.642;22.430;2023-04-01T23:36:02;6.72;;;2.60;;
65477;SDS011;53678;39.642;22.430;2023-04-01T23:38:36;7.32;;;3.10;;
65477;SDS011;53678;39.642;22.430;2023-04-01T23:41:05;4.20;;;2.17;;
65477;SDS011;53678;39.642;22.430;2023-04-01T23:43:32;8.13;;;2.65;;
65477;SDS011;53678;39.642;22.430;2023-04-01T23:46:03;6.10;;;2.65;;
65477;SDS011;53678;39.642;22.430;2023-04-01T23:48:41;6.47;;;2.70;;
65477;SDS011;53678;39.642;22.430;2023-04-01T23:53:56;7.82;;;2.58;;
65477;SDS011;53678;39.642;22.430;2023-04-01T23:56:51;6.10;;;2.25;;
65477;SDS011;53678;39.642;22.430;2023-04-01T23:59:22;8.02;;;2.50;;
